Seward, AK

9:46 AM AKDT on October 02, 2014 (GMT -0800)
Oak Street Forest Acres Seward Alaska | Change Station
CLOSE
Current Station
Personal Weather Station
Location: Seward, AK
Elevation: 144 ft
Nearby Weather Stations

Elev 144 ft 60.14 °N, 149.44 °W | Updated 7 seconds ago

Overcast
Overcast
37.9 °F
Feels Like 38 °F
N
0.0
Wind Variable Wind from SW

Today
High -- | Low -- °F
--% Chance of Precip.
Yesterday
High -- | Low -- °F
Precip. -- in
8:06 AM 7:26 PM
First Quarter, 60% visible
Pressure 29.97 in
Visibility 10.0 miles
Clouds Overcast 6000 ft
Windchill 38 °F
Dew Point 32 °F
Humidity 80%
Rainfall 0.00 in
Snow Depth 0 in , 5 in , 3 in
UV 15.0 out of 12
Pollen Not available.
Air Quality Not available.
Flu Activity Not available.
METAR PAWD 021653Z AUTO 35003KT 10SM OVC060 03/M01 A2997 RMK AO2 SLP147 T00331011 TSNO

More Conditions Fewer Conditions

Pressure 29.97 in
Visibility 10.0 miles
Clouds Overcast 6000 ft
Windchill 38 °F
Dew Point 32 °F
Humidity 80%
Rainfall 0.00 in
Snow Depth 0 in , 5 in , 3 in
UV 15.0 out of 12
Pollen Not available.
Air Quality Not available.
Flu Activity Not available.
METAR PAWD 021653Z AUTO 35003KT 10SM OVC060 03/M01 A2997 RMK AO2 SLP147 T00331011 TSNO

More Conditions Fewer Conditions

10-Day Weather Forecast

Almanac

Astronomy

Oct. 02, 2014 Rise Set
Actual Time 8:06 AM AKDT 7:26 PM AKDT
Civil Twilight 7:24 AM AKDT 8:07 PM AKDT
Nautical Twilight 6:35 AM AKDT 8:56 PM AKDT
Astronomical Twilight 5:44 AM AKDT 9:47 PM AKDT
Moon 4:58 PM AKDT 12:08 AM AKDT
Length of Visible Light 12h 43m
Length of Day
11h 20m
Tomorrow will be 5m 25s shorter.
First Quarter, 60% of the Moon is Illuminated
Today
First Quarter
Oct 8
Full
Oct 15
Last Quarter
Oct 23
New
Oct 30
First Quarter

Today's Extremes

State Highs State Lows

Community

WunderPhotos

Upload Photos

1,758,312 photos uploaded!

Nearby

Snow Depth

Station Depth Elevation
Pargon Creek 0 in 300 ft
Munson Ridge 5 in 3100 ft
Rocky Point 3 in 500 ft
Upper Tsaina River 0 in 1750 ft
Moraine 0 in 2100 ft

Earthquake Activity

City Distance Mag. Time & Date
No recent earthquake activity has been reported nearby.
Minimum magnitude displayed is 2.5.

Coastal Water Temperatures

Place Temperature
No Stations Reporting

Nearby Weather Stations